Time;durP1;ratioP1;P1;durP2;ratioP2;P2;SDS_P1;SDS_P2;PMS_P1;PMS_P2;Temp;Humidity;BMP_temperature;BMP_pressure;BME280_temperature;BME280_humidity;BME280_pressure;Samples;Min_cycle;Max_cycle;Signal;HPM_P1;HPM_P2
2022/08/08 00:00:01;;;;;;;;;;;;;;;16.91;61.67;102477.00;5033296;28;19924;-36
2022/08/08 00:02:41;;;;;;;;;;;;;;;16.88;61.83;102485.66;5033587;28;19924;-36
2022/08/08 00:05:20;;;;;;;;;;;;;;;16.85;61.67;102480.69;5033395;28;19977;-36
2022/08/08 00:07:58;;;;;;;;;;;;;;;16.85;61.83;102488.88;5034024;28;20262;-35
2022/08/08 00:10:42;;;;;;;;;;;;;;;16.84;61.38;102481.75;5033824;28;19940;-35
2022/08/08 00:13:18;;;;;;;;;;;;;;;16.82;62.04;102484.69;5033493;28;20328;-35
2022/08/08 00:15:46;;;;;;;;;;;;;;;16.80;61.79;102483.28;5033721;28;19986;-35
2022/08/08 00:18:19;;;;;;;;;;;;;;;16.75;62.29;102483.16;5033224;28;19913;-35
2022/08/08 00:20:51;;;;;;;;;;;;;;;16.69;61.79;102477.53;5033506;28;19913;-35
2022/08/08 00:23:23;;;;;;;;;;;;;;;16.65;62.09;102478.22;5033356;28;19913;-35
2022/08/08 00:25:50;;;;;;;;;;;;;;;16.61;62.44;102483.31;5033677;28;19920;-35
2022/08/08 00:28:18;;;;;;;;;;;;;;;16.57;62.62;102484.81;5033076;28;19920;-35
2022/08/08 00:30:46;;;;;;;;;;;;;;;16.54;62.83;102479.81;5033799;28;20277;-34
2022/08/08 00:33:16;;;;;;;;;;;;;;;16.50;63.44;102481.38;5033697;28;20011;-34
2022/08/08 00:35:41;;;;;;;;;;;;;;;16.45;63.59;102484.78;5035902;28;20334;-34
2022/08/08 00:38:06;;;;;;;;;;;;;;;16.43;63.17;102486.91;5037005;28;19912;-34
2022/08/08 00:40:31;;;;;;;;;;;;;;;16.44;63.00;102485.81;5037450;28;19913;-35
2022/08/08 00:43:06;;;;;;;;;;;;;;;16.42;63.65;102490.69;5036632;28;20000;-34
2022/08/08 00:45:37;;;;;;;;;;;;;;;16.40;63.50;102486.53;5037176;28;20015;-34
2022/08/08 00:48:08;;;;;;;;;;;;;;;16.37;63.70;102487.81;5036770;28;19920;-34
2022/08/08 00:50:51;;;;;;;;;;;;;;;16.37;63.50;102478.81;5036812;28;19979;-34
2022/08/08 00:53:28;;;;;;;;;;;;;;;16.37;63.80;102474.16;5036740;28;19919;-34
2022/08/08 00:56:12;;;;;;;;;;;;;;;16.35;63.93;102472.75;5037440;28;19920;-34
2022/08/08 00:58:48;;;;;;;;;;;;;;;16.33;64.54;102470.22;5036613;28;19999;-34
2022/08/08 01:01:25;;;;;;;;;;;;;;;16.29;64.28;102479.09;5037352;28;20277;-34
2022/08/08 01:03:50;;;;;;;;;;;;;;;16.27;64.80;102473.06;5036333;28;19917;-35
2022/08/08 01:06:19;;;;;;;;;;;;;;;16.26;64.34;102474.13;5036617;28;19919;-34
2022/08/08 01:08:50;;;;;;;;;;;;;;;16.26;64.55;102469.50;5036153;28;20289;-34
2022/08/08 01:11:24;;;;;;;;;;;;;;;16.24;64.55;102474.34;5036445;28;19917;-35
2022/08/08 01:13:58;;;;;;;;;;;;;;;16.23;64.94;102470.78;5036295;28;19916;-34
2022/08/08 01:16:26;;;;;;;;;;;;;;;16.18;64.98;102467.91;5036588;28;19913;-35
2022/08/08 01:19:10;;;;;;;;;;;;;;;16.17;65.78;102466.25;5036274;28;19966;-35
2022/08/08 01:21:53;;;;;;;;;;;;;;;16.12;65.49;102465.25;5036222;28;19917;-35
2022/08/08 01:24:36;;;;;;;;;;;;;;;16.07;65.63;102473.31;5036095;28;20086;-35
2022/08/08 01:27:21;;;;;;;;;;;;;;;16.04;65.41;102463.66;5036249;28;19917;-35
2022/08/08 01:29:53;;;;;;;;;;;;;;;16.01;65.50;102472.31;5035828;28;20361;-35
2022/08/08 01:32:37;;;;;;;;;;;;;;;15.98;65.58;102475.50;5036088;28;19933;-35
2022/08/08 01:35:21;;;;;;;;;;;;;;;15.96;65.88;102462.09;5036077;28;19913;-35
2022/08/08 01:37:52;;;;;;;;;;;;;;;15.95;65.95;102462.31;5037039;28;19913;-35
2022/08/08 01:40:26;;;;;;;;;;;;;;;15.93;66.13;102464.44;5036634;28;20264;-35
2022/08/08 01:42:54;;;;;;;;;;;;;;;15.91;66.07;102470.13;5036066;28;19913;-35
2022/08/08 01:45:19;;;;;;;;;;;;;;;15.90;66.21;102470.34;5036161;28;20008;-35
2022/08/08 01:47:57;;;;;;;;;;;;;;;15.87;66.32;102465.34;5035122;28;20368;-34
2022/08/08 01:50:31;;;;;;;;;;;;;;;15.82;66.49;102476.09;5035738;28;19913;-34
2022/08/08 01:53:06;;;;;;;;;;;;;;;15.82;66.56;102470.66;5035749;28;19967;-35
2022/08/08 01:55:34;;;;;;;;;;;;;;;15.79;66.80;102473.81;5035677;28;19932;-35
2022/08/08 01:58:18;;;;;;;;;;;;;;;15.77;66.87;102474.06;5035617;28;19959;-35
2022/08/08 02:00:52;;;;;;;;;;;;;;;15.73;67.30;102472.84;5035878;28;20011;-35
2022/08/08 02:03:20;;;;;;;;;;;;;;;15.70;66.92;102479.56;5035888;28;19960;-35
2022/08/08 02:05:58;;;;;;;;;;;;;;;15.67;66.92;102473.75;5035509;28;19979;-35
2022/08/08 02:08:42;;;;;;;;;;;;;;;15.63;67.27;102473.34;5035062;28;19913;-35
2022/08/08 02:11:10;;;;;;;;;;;;;;;15.60;67.30;102473.75;5035858;28;19917;-35
2022/08/08 02:13:51;;;;;;;;;;;;;;;15.60;67.21;102475.66;5036023;28;19913;-35
2022/08/08 02:16:34;;;;;;;;;;;;;;;15.58;67.40;102473.16;5035286;28;19913;-35
2022/08/08 02:19:05;;;;;;;;;;;;;;;15.54;67.68;102474.66;5035953;28;19967;-35
2022/08/08 02:24:19;;;;;;;;;;;;;;;15.48;67.61;102472.84;5035675;28;19920;-35
2022/08/08 02:26:50;;;;;;;;;;;;;;;15.45;68.09;102474.13;5035350;28;20296;-35
2022/08/08 02:29:35;;;;;;;;;;;;;;;15.43;68.39;102464.50;5034674;28;19917;-35
2022/08/08 02:32:03;;;;;;;;;;;;;;;15.42;68.46;102468.25;5035244;28;19966;-35
2022/08/08 02:34:44;;;;;;;;;;;;;;;15.39;67.98;102472.28;5035177;28;19913;-35
2022/08/08 02:37:15;;;;;;;;;;;;;;;15.36;68.11;102466.44;5034971;28;19924;-35
2022/08/08 02:39:43;;;;;;;;;;;;;;;15.34;67.82;102471.28;5034537;28;19987;-35
2022/08/08 02:42:10;;;;;;;;;;;;;;;15.33;68.93;102472.38;5035300;28;20277;-35
2022/08/08 02:44:36;;;;;;;;;;;;;;;15.29;68.17;102468.41;5034733;28;19913;-35
2022/08/08 02:47:20;;;;;;;;;;;;;;;15.28;68.35;102474.91;5035481;28;19913;-35
2022/08/08 02:49:57;;;;;;;;;;;;;;;15.26;68.19;102471.56;5035109;28;20387;-35
2022/08/08 02:52:37;;;;;;;;;;;;;;;15.23;68.43;102474.75;5034808;28;19913;-35
2022/08/08 02:55:15;;;;;;;;;;;;;;;15.22;68.92;102479.34;5035264;28;20383;-35
2022/08/08 02:57:52;;;;;;;;;;;;;;;15.18;68.76;102478.16;5034488;28;20464;-35
2022/08/08 03:00:20;;;;;;;;;;;;;;;15.15;69.24;102470.41;5034680;28;19913;-35
2022/08/08 03:02:57;;;;;;;;;;;;;;;15.12;69.08;102473.56;5034391;28;19921;-35
2022/08/08 03:05:40;;;;;;;;;;;;;;;15.10;69.56;102473.78;5034602;28;19913;-34
2022/08/08 03:08:11;;;;;;;;;;;;;;;15.10;69.41;102483.84;5034245;28;19920;-34
2022/08/08 03:10:49;;;;;;;;;;;;;;;15.09;69.40;102472.13;5034949;28;20413;-34
2022/08/08 03:13:33;;;;;;;;;;;;;;;15.09;69.51;102482.19;5034639;28;19913;-34
2022/08/08 03:16:15;;;;;;;;;;;;;;;15.08;71.28;102481.38;5034376;28;19967;-35
2022/08/08 03:18:47;;;;;;;;;;;;;;;15.01;70.36;102475.13;5034325;28;19913;-35
2022/08/08 03:21:12;;;;;;;;;;;;;;;14.95;71.74;102484.19;5034843;28;19913;-34
2022/08/08 03:23:38;;;;;;;;;;;;;;;14.89;71.17;102477.72;5033570;28;20207;-34
2022/08/08 03:26:03;;;;;;;;;;;;;;;14.88;70.52;102494.28;5033994;28;19920;-35
2022/08/08 03:28:40;;;;;;;;;;;;;;;14.86;70.73;102491.78;5033627;28;19913;-35
2022/08/08 03:33:50;;;;;;;;;;;;;;;14.86;71.03;102490.94;5033591;28;19936;-35
2022/08/08 03:36:16;;;;;;;;;;;;;;;14.87;71.02;102487.16;5034062;28;19917;-35
2022/08/08 03:38:45;;;;;;;;;;;;;;;14.85;70.88;102490.13;5033670;28;19913;-35
2022/08/08 03:41:11;;;;;;;;;;;;;;;14.84;70.58;102488.44;5034429;28;19920;-35
2022/08/08 03:43:36;;;;;;;;;;;;;;;14.83;70.96;102484.03;5033862;28;19913;-35
2022/08/08 03:46:04;;;;;;;;;;;;;;;14.80;70.80;102480.94;5034302;28;19920;-35
2022/08/08 03:48:30;;;;;;;;;;;;;;;14.79;70.56;102488.28;5033591;28;19933;-35
2022/08/08 03:50:55;;;;;;;;;;;;;;;14.75;71.26;102486.22;5033804;28;19921;-35
2022/08/08 03:53:20;;;;;;;;;;;;;;;14.72;71.76;102501.06;5033450;28;19936;-35
2022/08/08 03:55:48;;;;;;;;;;;;;;;14.70;71.17;102497.75;5033764;28;19979;-35
2022/08/08 03:58:23;;;;;;;;;;;;;;;14.70;70.92;102494.19;5033459;28;19917;-35
2022/08/08 04:00:53;;;;;;;;;;;;;;;14.70;71.08;102492.31;5034071;28;20242;-34
2022/08/08 04:03:19;;;;;;;;;;;;;;;14.68;71.09;102495.22;5033994;28;19963;-34
2022/08/08 04:05:45;;;;;;;;;;;;;;;14.66;71.13;102497.34;5033584;28;19921;-34
2022/08/08 04:08:15;;;;;;;;;;;;;;;14.65;71.78;102503.84;5033246;28;19984;-34
2022/08/08 04:10:40;;;;;;;;;;;;;;;14.63;71.30;102503.22;5033289;28;20262;-34
2022/08/08 04:13:05;;;;;;;;;;;;;;;14.64;71.23;102504.91;5033617;28;19913;-34
2022/08/08 04:15:31;;;;;;;;;;;;;;;14.64;71.52;102509.50;5033194;28;19936;-34
2022/08/08 04:17:56;;;;;;;;;;;;;;;14.64;72.14;102504.91;5033702;28;19938;-34
2022/08/08 04:20:21;;;;;;;;;;;;;;;14.61;71.60;102502.59;5048516;28;19913;-35
2022/08/08 04:22:46;;;;;;;;;;;;;;;14.61;71.88;102499.06;5032834;28;19913;-35
2022/08/08 04:25:11;;;;;;;;;;;;;;;14.60;71.77;102497.38;5033390;28;19913;-35
2022/08/08 04:27:37;;;;;;;;;;;;;;;14.61;71.87;102505.34;5033149;28;19923;-35
2022/08/08 04:30:03;;;;;;;;;;;;;;;14.62;72.09;102509.72;5033360;28;19936;-35
2022/08/08 04:32:28;;;;;;;;;;;;;;;14.63;72.21;102508.66;5032701;28;20336;-35
2022/08/08 04:34:53;;;;;;;;;;;;;;;14.62;72.10;102508.88;5033260;28;19917;-35
2022/08/08 04:37:19;;;;;;;;;;;;;;;14.61;72.63;102510.78;5032993;28;19913;-35
2022/08/08 04:39:44;;;;;;;;;;;;;;;14.61;72.61;102510.78;5032939;28;19916;-35
2022/08/08 04:42:09;;;;;;;;;;;;;;;14.62;72.29;102515.16;5033094;28;19912;-35
2022/08/08 04:44:34;;;;;;;;;;;;;;;14.65;72.56;102520.19;5033222;28;20273;-35
2022/08/08 04:46:59;;;;;;;;;;;;;;;14.65;72.67;102527.53;5033432;28;20218;-35
2022/08/08 04:49:25;;;;;;;;;;;;;;;14.67;72.55;102534.41;5032941;28;19913;-35
2022/08/08 04:51:50;;;;;;;;;;;;;;;14.71;72.45;102533.97;5033104;28;19977;-35
2022/08/08 04:54:15;;;;;;;;;;;;;;;14.75;72.83;102533.31;5032965;28;20487;-35
2022/08/08 04:56:40;;;;;;;;;;;;;;;14.77;72.70;102535.81;5033098;28;20037;-35
2022/08/08 04:59:06;;;;;;;;;;;;;;;14.79;72.83;102539.19;5032838;28;20012;-35
2022/08/08 05:01:31;;;;;;;;;;;;;;;14.84;72.81;102544.81;5032662;28;19913;-35
2022/08/08 05:03:56;;;;;;;;;;;;;;;14.86;73.45;102553.59;5032660;28;19913;-35
2022/08/08 05:06:21;;;;;;;;;;;;;;;14.88;73.31;102556.91;5033205;28;19967;-35
2022/08/08 05:08:48;;;;;;;;;;;;;;;14.92;73.07;102563.59;5032403;28;19975;-35
2022/08/08 05:11:13;;;;;;;;;;;;;;;14.92;73.13;102561.72;5033702;28;19924;-35
2022/08/08 05:13:42;;;;;;;;;;;;;;;14.99;72.91;102556.25;5032688;28;19913;-35
2022/08/08 05:16:08;;;;;;;;;;;;;;;15.08;72.87;102554.06;5033131;28;19913;-35
2022/08/08 05:18:35;;;;;;;;;;;;;;;15.11;74.54;102553.63;5032680;28;19968;-35
2022/08/08 05:21:01;;;;;;;;;;;;;;;15.16;73.15;102551.91;5033167;28;19913;-35
2022/08/08 05:23:26;;;;;;;;;;;;;;;15.26;73.16;102556.06;5035790;28;19913;-35
2022/08/08 05:25:52;;;;;;;;;;;;;;;15.33;73.35;102559.59;5036693;28;19913;-35
2022/08/08 05:28:17;;;;;;;;;;;;;;;15.39;73.17;102553.25;5036152;28;19913;-35
2022/08/08 05:30:42;;;;;;;;;;;;;;;15.47;73.97;102558.44;5036103;28;20273;-35
2022/08/08 05:33:08;;;;;;;;;;;;;;;15.52;74.83;102555.00;5035960;28;20289;-35
2022/08/08 05:35:33;;;;;;;;;;;;;;;15.56;74.64;102559.78;5035976;28;20365;-35
2022/08/08 05:37:59;;;;;;;;;;;;;;;15.62;73.64;102556.19;5035561;28;19917;-35
2022/08/08 05:40:26;;;;;;;;;;;;;;;15.68;73.96;102559.94;5036262;28;19923;-35
2022/08/08 05:42:53;;;;;;;;;;;;;;;15.76;73.49;102562.38;5035974;28;19935;-35
2022/08/08 05:45:19;;;;;;;;;;;;;;;15.85;73.05;102569.22;5035893;28;20385;-35
2022/08/08 05:47:44;;;;;;;;;;;;;;;15.96;73.00;102570.41;5036220;28;19917;-35
2022/08/08 05:50:10;;;;;;;;;;;;;;;16.04;75.38;102569.25;5035866;28;19964;-35
2022/08/08 05:52:36;;;;;;;;;;;;;;;16.03;76.44;102568.41;5035749;28;19913;-35
2022/08/08 05:55:01;;;;;;;;;;;;;;;16.10;74.84;102569.16;5035848;28;20007;-35
2022/08/08 05:57:27;;;;;;;;;;;;;;;16.19;73.72;102561.53;5035794;28;20357;-35
2022/08/08 05:59:55;;;;;;;;;;;;;;;16.22;74.94;102569.28;5035367;28;19995;-35
2022/08/08 06:05:07;;;;;;;;;;;;;;;16.27;74.29;102565.88;5036206;28;19959;-35
2022/08/08 06:07:34;;;;;;;;;;;;;;;16.35;75.24;102568.31;5035508;28;19920;-35
2022/08/08 06:10:01;;;;;;;;;;;;;;;16.39;74.20;102566.75;5035264;28;19975;-35
2022/08/08 06:12:27;;;;;;;;;;;;;;;16.44;74.34;102569.63;5035502;28;19955;-35
2022/08/08 06:14:52;;;;;;;;;;;;;;;16.44;74.17;102569.63;5036083;28;19952;-35
2022/08/08 06:17:18;;;;;;;;;;;;;;;16.51;73.83;102569.56;5035870;28;19913;-35
2022/08/08 06:19:44;;;;;;;;;;;;;;;16.54;73.98;102575.38;5035891;28;19967;-35
2022/08/08 06:22:09;;;;;;;;;;;;;;;16.57;75.43;102565.91;5035719;28;19917;-35
2022/08/08 06:24:34;;;;;;;;;;;;;;;16.63;74.45;102573.19;5035042;28;19913;-35
2022/08/08 06:27:04;;;;;;;;;;;;;;;16.69;74.59;102578.59;5035570;28;19998;-35
2022/08/08 06:29:34;;;;;;;;;;;;;;;16.74;76.54;102575.19;5035711;28;20026;-35
2022/08/08 06:32:02;;;;;;;;;;;;;;;16.76;76.39;102583.97;5034718;28;19913;-35
2022/08/08 06:34:28;;;;;;;;;;;;;;;16.85;75.57;102579.03;5035583;28;19920;-35
2022/08/08 06:36:56;;;;;;;;;;;;;;;16.95;76.34;102587.53;5035327;28;20293;-35
2022/08/08 06:39:21;;;;;;;;;;;;;;;17.04;75.63;102591.59;5035188;28;19913;-35
2022/08/08 06:41:46;;;;;;;;;;;;;;;17.08;75.65;102595.53;5035384;28;20261;-35
2022/08/08 06:44:14;;;;;;;;;;;;;;;17.13;75.13;102601.16;5034883;28;20243;-35
2022/08/08 06:46:40;;;;;;;;;;;;;;;17.20;74.84;102590.94;5035335;28;19913;-35
2022/08/08 06:49:05;;;;;;;;;;;;;;;17.27;74.56;102593.56;5034822;28;19913;-35
2022/08/08 06:51:30;;;;;;;;;;;;;;;17.36;74.69;102596.78;5035023;28;19917;-35
2022/08/08 06:53:58;;;;;;;;;;;;;;;17.43;74.91;102597.53;5035185;28;20324;-35
2022/08/08 06:56:23;;;;;;;;;;;;;;;17.42;74.24;102587.66;5035230;28;19913;-35
2022/08/08 06:58:49;;;;;;;;;;;;;;;17.43;74.48;102590.16;5034895;28;19920;-35
2022/08/08 07:01:15;;;;;;;;;;;;;;;17.49;75.86;102593.88;5034320;28;19967;-35
2022/08/08 07:03:43;;;;;;;;;;;;;;;17.51;74.47;102592.53;5035073;28;19924;-35
2022/08/08 07:06:09;;;;;;;;;;;;;;;17.59;74.95;102596.84;5034323;28;19924;-35
2022/08/08 07:08:38;;;;;;;;;;;;;;;17.64;74.14;102594.25;5034037;28;19917;-35
2022/08/08 07:11:04;;;;;;;;;;;;;;;17.71;73.92;102594.97;5034993;28;19917;-35
2022/08/08 07:13:37;;;;;;;;;;;;;;;17.83;74.34;102602.38;5034106;28;19943;-35
2022/08/08 07:16:03;;;;;;;;;;;;;;;17.93;74.61;102605.38;5034644;28;19924;-35
2022/08/08 07:18:32;;;;;;;;;;;;;;;18.01;73.91;102610.50;5033924;28;20295;-35
2022/08/08 07:21:02;;;;;;;;;;;;;;;18.08;73.62;102613.94;5033916;28;20322;-35
2022/08/08 07:23:35;;;;;;;;;;;;;;;18.07;72.85;102612.28;5034219;28;19913;-35
2022/08/08 07:26:02;;;;;;;;;;;;;;;18.09;72.84;102612.84;5034480;28;19975;-35
2022/08/08 07:28:27;;;;;;;;;;;;;;;18.14;72.69;102606.66;5033754;28;19920;-35
2022/08/08 07:30:52;;;;;;;;;;;;;;;18.23;72.45;102613.44;5034051;28;20290;-35
2022/08/08 07:33:21;;;;;;;;;;;;;;;18.35;72.16;102611.53;5033882;28;19913;-35
2022/08/08 07:35:46;;;;;;;;;;;;;;;18.46;71.96;102612.59;5034160;28;19932;-35
2022/08/08 07:38:12;;;;;;;;;;;;;;;18.51;71.44;102612.69;5034198;28;19913;-35
2022/08/08 07:40:38;;;;;;;;;;;;;;;18.57;71.42;102605.41;5034115;28;19913;-36
2022/08/08 07:43:03;;;;;;;;;;;;;;;18.64;71.01;102608.84;5033745;28;20324;-35
2022/08/08 07:45:29;;;;;;;;;;;;;;;18.66;70.91;102607.53;5033427;28;19913;-36
2022/08/08 07:47:57;;;;;;;;;;;;;;;18.72;70.45;102616.72;5033278;28;19921;-35
2022/08/08 07:50:22;;;;;;;;;;;;;;;18.80;70.83;102612.78;5034200;28;20008;-35
2022/08/08 07:52:50;;;;;;;;;;;;;;;18.87;70.67;102613.47;5034210;28;20335;-35
2022/08/08 07:55:20;;;;;;;;;;;;;;;18.93;70.04;102618.78;5034102;28;20254;-35
2022/08/08 07:57:45;;;;;;;;;;;;;;;18.96;69.64;102618.31;5034254;28;19928;-35
2022/08/08 08:00:12;;;;;;;;;;;;;;;19.06;69.55;102620.41;5034068;28;19917;-36
2022/08/08 08:03:00;;;;;;;;;;;;;;;19.07;69.51;102611.09;5033606;28;19921;-36
2022/08/08 08:05:27;;;;;;;;;;;;;;;19.13;69.30;102621.13;5033206;28;19921;-36
2022/08/08 08:07:53;;;;;;;;;;;;;;;19.22;69.44;102616.88;5033539;28;19913;-36
2022/08/08 08:10:19;;;;;;;;;;;;;;;19.32;68.54;102613.47;5033434;28;20350;-36
2022/08/08 08:12:52;;;;;;;;;;;;;;;19.40;68.15;102625.97;5033805;28;19960;-36
2022/08/08 08:15:18;;;;;;;;;;;;;;;19.45;68.38;102623.31;5033168;28;19913;-36
2022/08/08 08:17:45;;;;;;;;;;;;;;;19.53;68.06;102622.94;5033422;28;19913;-36
2022/08/08 08:20:12;;;;;;;;;;;;;;;19.62;68.02;102631.59;5033498;28;20379;-36
2022/08/08 08:22:38;;;;;;;;;;;;;;;19.71;67.75;102628.19;5033225;28;19959;-36
2022/08/08 08:25:03;;;;;;;;;;;;;;;19.78;67.57;102619.81;5033872;28;19913;-41
2022/08/08 08:27:28;;;;;;;;;;;;;;;19.84;67.08;102628.94;5033192;28;19916;-36
2022/08/08 08:29:53;;;;;;;;;;;;;;;19.91;66.61;102626.84;5033032;28;19971;-36
2022/08/08 08:32:19;;;;;;;;;;;;;;;19.97;66.31;102625.88;5033297;28;20007;-36
2022/08/08 08:34:44;;;;;;;;;;;;;;;20.09;65.74;102637.56;5033345;28;19968;-36
2022/08/08 08:37:09;;;;;;;;;;;;;;;20.14;64.76;102634.91;5033044;28;19959;-36
2022/08/08 08:39:36;;;;;;;;;;;;;;;20.20;65.42;102635.81;5037375;28;19999;-36
2022/08/08 08:42:02;;;;;;;;;;;;;;;20.19;64.76;102632.22;5033099;28;20397;-36
2022/08/08 08:44:27;;;;;;;;;;;;;;;20.23;64.54;102630.66;5033427;28;20051;-36
2022/08/08 08:46:52;;;;;;;;;;;;;;;20.27;64.80;102630.97;5032839;28;19913;-36
2022/08/08 08:49:18;;;;;;;;;;;;;;;20.36;64.91;102640.47;5033580;28;19998;-36
2022/08/08 08:51:43;;;;;;;;;;;;;;;20.41;64.59;102643.28;5033377;28;20063;-34
2022/08/08 08:54:10;;;;;;;;;;;;;;;20.51;64.52;102637.13;5033005;28;20404;-35
2022/08/08 08:56:36;;;;;;;;;;;;;;;20.58;62.20;102640.50;5035674;28;19940;-35
2022/08/08 08:59:03;;;;;;;;;;;;;;;20.57;63.07;102645.16;5037469;28;19913;-35
2022/08/08 09:01:36;;;;;;;;;;;;;;;20.60;62.28;102629.28;5036822;28;19928;-35
2022/08/08 09:04:08;;;;;;;;;;;;;;;20.57;62.73;102642.41;5037499;28;19916;-36
2022/08/08 09:06:38;;;;;;;;;;;;;;;20.65;61.88;102638.41;5036360;28;19928;-36
2022/08/08 09:09:07;;;;;;;;;;;;;;;20.75;61.35;102646.78;5036195;28;19928;-35
2022/08/08 09:11:34;;;;;;;;;;;;;;;20.78;61.52;102645.41;5036884;28;19967;-35
2022/08/08 09:14:00;;;;;;;;;;;;;;;20.90;60.99;102639.81;5036525;28;19919;-35
2022/08/08 09:16:25;;;;;;;;;;;;;;;21.07;61.79;102638.63;5036605;28;19963;-35
2022/08/08 09:18:51;;;;;;;;;;;;;;;21.33;61.95;102637.00;5036132;28;19921;-35
2022/08/08 09:21:17;;;;;;;;;;;;;;;21.49;61.09;102640.72;5037251;28;19913;-35
2022/08/08 09:23:42;;;;;;;;;;;;;;;21.71;61.26;102640.63;5035688;28;20344;-35
2022/08/08 09:26:12;;;;;;;;;;;;;;;21.74;59.54;102642.06;5036392;28;20007;-35
2022/08/08 09:28:39;;;;;;;;;;;;;;;21.63;60.97;102646.66;5035992;28;19917;-35
2022/08/08 09:31:15;;;;;;;;;;;;;;;21.71;58.90;102648.06;5036452;28;20085;-35
2022/08/08 09:33:41;;;;;;;;;;;;;;;21.83;59.91;102641.31;5036094;28;19958;-35
2022/08/08 09:36:09;;;;;;;;;;;;;;;21.96;58.90;102642.78;5036401;28;19979;-35
2022/08/08 09:38:42;;;;;;;;;;;;;;;21.90;57.19;102645.75;5035482;28;20389;-36
2022/08/08 09:41:08;;;;;;;;;;;;;;;21.64;57.92;102642.78;5036171;28;19974;-35
2022/08/08 09:43:42;;;;;;;;;;;;;;;21.50;59.45;102641.56;5035574;28;20357;-35
2022/08/08 09:46:07;;;;;;;;;;;;;;;21.60;59.19;102636.97;5036536;28;19913;-35
2022/08/08 09:48:34;;;;;;;;;;;;;;;21.84;59.73;102636.63;5035573;28;19949;-35
2022/08/08 09:51:00;;;;;;;;;;;;;;;22.07;57.29;102630.75;5036224;28;19978;-35
2022/08/08 09:53:32;;;;;;;;;;;;;;;22.27;57.10;102634.75;5044382;28;19921;-35
2022/08/08 09:55:58;;;;;;;;;;;;;;;22.35;57.39;102642.50;5055603;28;19913;-35
2022/08/08 09:58:26;;;;;;;;;;;;;;;22.25;57.03;102632.28;5055317;28;19966;-35
2022/08/08 10:00:54;;;;;;;;;;;;;;;22.08;56.71;102632.38;5055414;28;19920;-35
2022/08/08 10:03:22;;;;;;;;;;;;;;;22.18;56.94;102631.66;5055676;28;19924;-35
2022/08/08 10:05:47;;;;;;;;;;;;;;;22.17;55.26;102638.28;5055515;28;19951;-35
2022/08/08 10:08:12;;;;;;;;;;;;;;;22.08;55.72;102640.66;5054745;28;19952;-35
2022/08/08 10:10:41;;;;;;;;;;;;;;;22.06;56.96;102634.59;5055132;28;20434;-35
2022/08/08 10:13:28;;;;;;;;;;;;;;;22.03;57.13;102631.53;5055280;28;19959;-35
2022/08/08 10:15:55;;;;;;;;;;;;;;;21.93;55.90;102628.72;5055660;28;19912;-35
2022/08/08 10:18:24;;;;;;;;;;;;;;;21.88;56.37;102645.19;5054902;28;19986;-35
2022/08/08 10:20:52;;;;;;;;;;;;;;;22.16;56.02;102639.38;5055194;28;20050;-35
2022/08/08 10:23:19;;;;;;;;;;;;;;;22.62;56.27;102634.91;5055549;28;20249;-35
2022/08/08 10:25:45;;;;;;;;;;;;;;;23.03;54.48;102625.97;5055056;28;20298;-35
2022/08/08 10:28:14;;;;;;;;;;;;;;;23.15;53.55;102620.22;5054701;28;19919;-35
2022/08/08 10:30:52;;;;;;;;;;;;;;;23.09;52.45;102625.75;5054700;28;19919;-35
2022/08/08 10:33:25;;;;;;;;;;;;;;;23.01;53.71;102630.97;5054653;28;19913;-35
2022/08/08 10:35:53;;;;;;;;;;;;;;;22.91;53.41;102630.94;5054859;28;20000;-35
2022/08/08 10:38:19;;;;;;;;;;;;;;;22.74;52.56;102631.97;5054918;28;19922;-35
2022/08/08 10:40:49;;;;;;;;;;;;;;;22.33;50.99;102631.75;5055156;28;20003;-35
2022/08/08 10:43:14;;;;;;;;;;;;;;;22.28;52.04;102623.44;5055447;28;20296;-35
2022/08/08 10:45:46;;;;;;;;;;;;;;;22.15;52.49;102631.34;5055547;28;19920;-35
2022/08/08 10:48:14;;;;;;;;;;;;;;;22.14;53.58;102627.78;5054659;28;19955;-36
2022/08/08 10:50:39;;;;;;;;;;;;;;;22.24;53.24;102627.81;5054914;28;19961;-35
2022/08/08 10:53:05;;;;;;;;;;;;;;;22.57;51.90;102621.13;5054371;28;20391;-35
2022/08/08 10:55:31;;;;;;;;;;;;;;;22.98;52.02;102623.22;5054529;28;19920;-35
2022/08/08 10:57:58;;;;;;;;;;;;;;;23.38;51.09;102615.03;5054943;28;19913;-35
2022/08/08 11:00:25;;;;;;;;;;;;;;;23.47;48.95;102617.22;5054521;28;19956;-35
2022/08/08 11:02:51;;;;;;;;;;;;;;;23.50;49.64;102616.69;5054294;28;20388;-35
2022/08/08 11:05:17;;;;;;;;;;;;;;;23.77;47.78;102617.28;5054941;28;19943;-36
2022/08/08 11:07:46;;;;;;;;;;;;;;;23.90;48.23;102613.91;5054502;28;19913;-35
2022/08/08 11:10:12;;;;;;;;;;;;;;;24.15;48.69;102612.22;5054278;28;19947;-35
2022/08/08 11:12:44;;;;;;;;;;;;;;;24.44;48.02;102608.84;5054726;28;19973;-35
2022/08/08 11:15:11;;;;;;;;;;;;;;;24.70;48.22;102604.88;5054709;28;19939;-36
2022/08/08 11:17:37;;;;;;;;;;;;;;;25.05;45.90;102603.84;5054115;28;19919;-36
2022/08/08 11:20:02;;;;;;;;;;;;;;;25.01;42.40;102607.47;5053887;28;19935;-36
2022/08/08 11:22:31;;;;;;;;;;;;;;;24.81;44.62;102603.72;5054476;28;19913;-35
2022/08/08 11:25:00;;;;;;;;;;;;;;;24.61;45.05;102603.81;5054184;28;19912;-36
2022/08/08 11:27:28;;;;;;;;;;;;;;;24.38;46.03;102600.56;5034500;28;19960;-36
2022/08/08 11:29:55;;;;;;;;;;;;;;;24.39;47.24;102595.88;5034334;28;19917;-36
2022/08/08 11:32:24;;;;;;;;;;;;;;;24.53;45.00;102596.09;5033976;28;19913;-36
2022/08/08 11:34:54;;;;;;;;;;;;;;;24.66;44.72;102585.25;5034585;28;19912;-35
2022/08/08 11:37:20;;;;;;;;;;;;;;;24.79;44.35;102581.06;5033058;28;19963;-36
2022/08/08 11:39:45;;;;;;;;;;;;;;;25.00;44.60;102583.69;5034093;28;19952;-36
2022/08/08 11:42:11;;;;;;;;;;;;;;;25.23;44.54;102576.63;5033360;28;19940;-36
2022/08/08 11:44:37;;;;;;;;;;;;;;;25.43;42.61;102582.84;5034741;28;20007;-36
2022/08/08 11:47:02;;;;;;;;;;;;;;;25.41;43.68;102585.06;5034238;28;19913;-36
2022/08/08 11:49:28;;;;;;;;;;;;;;;25.22;44.93;102581.31;5034687;28;19964;-35
2022/08/08 11:51:54;;;;;;;;;;;;;;;24.87;43.90;102579.59;5040661;28;20011;-35
2022/08/08 11:54:29;;;;;;;;;;;;;;;24.62;43.34;102580.56;5032817;28;19920;-35
2022/08/08 11:56:54;;;;;;;;;;;;;;;24.57;44.15;102573.13;5033556;28;20253;-35
2022/08/08 11:59:29;;;;;;;;;;;;;;;24.37;44.35;102576.81;5033536;28;19913;-36
2022/08/08 12:02:02;;;;;;;;;;;;;;;24.33;44.33;102575.69;5032900;28;19928;-35
2022/08/08 12:04:28;;;;;;;;;;;;;;;24.53;44.71;102579.50;5025318;28;19978;-35
2022/08/08 12:07:01;;;;;;;;;;;;;;;24.91;44.86;102581.50;5033550;28;20051;-35
2022/08/08 12:09:27;;;;;;;;;;;;;;;25.18;43.68;102580.25;5033545;28;19920;-36
2022/08/08 12:11:52;;;;;;;;;;;;;;;25.45;44.92;102576.19;5033739;28;20323;-35
2022/08/08 12:14:24;;;;;;;;;;;;;;;25.73;42.20;102575.38;5033052;28;19921;-35
2022/08/08 12:16:52;;;;;;;;;;;;;;;25.83;42.78;102569.75;5033965;28;19913;-35
2022/08/08 12:19:17;;;;;;;;;;;;;;;25.99;41.97;102562.09;5033023;28;19963;-35
2022/08/08 12:21:42;;;;;;;;;;;;;;;26.28;42.81;102562.03;5033958;28;19913;-35
2022/08/08 12:24:10;;;;;;;;;;;;;;;26.37;39.91;102557.47;5033067;28;19921;-35
2022/08/08 12:26:37;;;;;;;;;;;;;;;26.57;40.32;102561.16;5033259;28;19940;-35
2022/08/08 12:29:18;;;;;;;;;;;;;;;26.55;39.75;102558.69;5033363;28;19913;-35
2022/08/08 12:31:43;;;;;;;;;;;;;;;26.28;40.00;102555.66;5036699;28;19917;-35
2022/08/08 12:34:09;;;;;;;;;;;;;;;26.13;39.10;102553.91;5036902;28;19917;-35
2022/08/08 12:36:37;;;;;;;;;;;;;;;25.77;40.00;102568.16;5036867;28;19924;-35
2022/08/08 12:39:03;;;;;;;;;;;;;;;25.52;41.38;102557.28;5037161;28;19948;-36
2022/08/08 12:41:28;;;;;;;;;;;;;;;25.52;42.27;102560.84;5037404;28;19913;-36
2022/08/08 12:44:02;;;;;;;;;;;;;;;25.52;43.25;102562.81;5036648;28;20404;-36
2022/08/08 12:46:28;;;;;;;;;;;;;;;25.51;43.58;102564.75;5036500;28;19917;-36
2022/08/08 12:48:54;;;;;;;;;;;;;;;25.41;42.98;102565.66;5037679;28;19913;-36
2022/08/08 12:51:19;;;;;;;;;;;;;;;25.19;43.63;102570.84;5037022;28;19920;-36